C2015 KECG-KECG
Flight info
| Callsign | C2015 |
|---|---|
| Flight time | 1h 25m |
| Altitude | 1500 |
| Route | VFR |
| Aircraft | C30J/M-VGD/C |
Departure
| Time | 2026-05-05 00:27 |
|---|---|
| Airport | Elizabeth City Regional Airport & Coast Guard Air Station (KECG) |
Arrival
| Time | 2026-05-05 01:52 |
|---|---|
| Airport | Elizabeth City Regional Airport & Coast Guard Air Station (KECG) |
| Time | Latitude | Longitude | Altitude | Speed | Heading |
|---|---|---|---|---|---|
| 2026-05-05 00:04 | 36.26266 | -76.17425 | 18 ft | 0 kts | 0° |
| 2026-05-05 00:20 | 36.26273 | -76.17425 | 18 ft | 5 kts | 352° |
| 2026-05-05 00:20 | 36.26291 | -76.17449 | 18 ft | 6 kts | 302° |
| 2026-05-05 00:20 | 36.26302 | -76.17486 | 18 ft | 4 kts | 274° |
| 2026-05-05 00:20 | 36.26296 | -76.17518 | 18 ft | 8 kts | 242° |
| 2026-05-05 00:21 | 36.26280 | -76.17547 | 20 ft | 4 kts | 236° |
| 2026-05-05 00:21 | 36.26278 | -76.17588 | 18 ft | 6 kts | 296° |
| 2026-05-05 00:21 | 36.26327 | -76.17660 | 19 ft | 16 kts | 316° |
| 2026-05-05 00:21 | 36.26389 | -76.17733 | 18 ft | 0 kts | 324° |
| 2026-05-05 00:23 | 36.26410 | -76.17751 | 18 ft | 5 kts | 319° |
| 2026-05-05 00:23 | 36.26469 | -76.17815 | 17 ft | 11 kts | 310° |
| 2026-05-05 00:23 | 36.26489 | -76.17874 | 19 ft | 11 kts | 278° |
| 2026-05-05 00:24 | 36.26477 | -76.17920 | 18 ft | 14 kts | 235° |
| 2026-05-05 00:24 | 36.26407 | -76.18020 | 20 ft | 9 kts | 228° |
| 2026-05-05 00:24 | 36.26383 | -76.18053 | 20 ft | 11 kts | 226° |
| 2026-05-05 00:24 | 36.26346 | -76.18102 | 18 ft | 9 kts | 227° |
| 2026-05-05 00:25 | 36.26336 | -76.18116 | 19 ft | 0 kts | 228° |
| 2026-05-05 00:25 | 36.26291 | -76.18178 | 19 ft | 6 kts | 227° |
| 2026-05-05 00:25 | 36.26264 | -76.18212 | 18 ft | 12 kts | 221° |
| 2026-05-05 00:25 | 36.26220 | -76.18233 | 18 ft | 2 kts | 183° |
| 2026-05-05 00:26 | 36.26151 | -76.18229 | 16 ft | 14 kts | 169° |
| 2026-05-05 00:26 | 36.26128 | -76.18214 | 17 ft | 4 kts | 98° |
| 2026-05-05 00:26 | 36.26090 | -76.17888 | 18 ft | 44 kts | 93° |
| 2026-05-05 00:26 | 36.26093 | -76.17681 | 19 ft | 32 kts | 94° |
| 2026-05-05 00:27 | 36.26079 | -76.17095 | 21 ft | 110 kts | 91° |
| 2026-05-05 00:27 | 36.26044 | -76.15883 | 315 ft | 164 kts | 98° |
| 2026-05-05 00:27 | 36.25976 | -76.14284 | 626 ft | 211 kts | 95° |
| 2026-05-05 00:27 | 36.26527 | -76.12406 | 849 ft | 254 kts | 56° |
| 2026-05-05 00:28 | 36.27922 | -76.11161 | 1147 ft | 242 kts | 17° |
| 2026-05-05 00:28 | 36.29535 | -76.10838 | 1465 ft | 234 kts | 2° |
| 2026-05-05 00:28 | 36.31159 | -76.10735 | 1788 ft | 235 kts | 352° |
| 2026-05-05 00:28 | 36.32787 | -76.10921 | 2128 ft | 238 kts | 358° |
| 2026-05-05 00:29 | 36.34363 | -76.10276 | 2271 ft | 243 kts | 36° |
| 2026-05-05 00:29 | 36.35324 | -76.08681 | 2204 ft | 230 kts | 78° |
| 2026-05-05 00:29 | 36.35297 | -76.06901 | 2188 ft | 201 kts | 123° |
| 2026-05-05 00:29 | 36.34411 | -76.05774 | 2201 ft | 176 kts | 167° |
| 2026-05-05 00:30 | 36.33235 | -76.05654 | 2206 ft | 171 kts | 188° |
| 2026-05-05 00:30 | 36.32034 | -76.05696 | 2197 ft | 173 kts | 184° |
| 2026-05-05 00:30 | 36.30836 | -76.05591 | 2200 ft | 171 kts | 179° |
| 2026-05-05 00:30 | 36.29699 | -76.05362 | 2191 ft | 161 kts | 176° |
| 2026-05-05 00:31 | 36.28603 | -76.05065 | 2147 ft | 165 kts | 174° |
| 2026-05-05 00:31 | 36.27490 | -76.04723 | 1878 ft | 163 kts | 172° |
| 2026-05-05 00:31 | 36.26413 | -76.04356 | 1618 ft | 159 kts | 171° |
| 2026-05-05 00:31 | 36.25359 | -76.03975 | 1508 ft | 158 kts | 169° |
| 2026-05-05 00:32 | 36.24320 | -76.03573 | 1513 ft | 157 kts | 168° |
| 2026-05-05 00:32 | 36.23271 | -76.03136 | 1506 ft | 158 kts | 168° |
| 2026-05-05 00:32 | 36.22296 | -76.02695 | 1490 ft | 143 kts | 167° |
| 2026-05-05 00:32 | 36.21375 | -76.02265 | 1504 ft | 141 kts | 167° |
| 2026-05-05 00:33 | 36.20455 | -76.01828 | 1519 ft | 143 kts | 167° |
| 2026-05-05 00:33 | 36.19521 | -76.01375 | 1507 ft | 144 kts | 166° |
| 2026-05-05 00:33 | 36.18593 | -76.00912 | 1500 ft | 144 kts | 166° |
| 2026-05-05 00:33 | 36.17658 | -76.00441 | 1505 ft | 146 kts | 165° |
| 2026-05-05 00:34 | 36.16719 | -75.99962 | 1503 ft | 146 kts | 165° |
| 2026-05-05 00:34 | 36.15788 | -75.99479 | 1503 ft | 143 kts | 165° |
| 2026-05-05 00:34 | 36.14875 | -75.99001 | 1509 ft | 142 kts | 165° |
| 2026-05-05 00:34 | 36.13966 | -75.98524 | 1512 ft | 142 kts | 165° |
| 2026-05-05 00:35 | 36.13060 | -75.98048 | 1503 ft | 141 kts | 165° |
| 2026-05-05 00:35 | 36.12165 | -75.97578 | 1514 ft | 142 kts | 165° |
| 2026-05-05 00:35 | 36.11236 | -75.97090 | 1511 ft | 146 kts | 163° |
| 2026-05-05 00:35 | 36.10301 | -75.96598 | 1503 ft | 146 kts | 163° |
| 2026-05-05 00:36 | 36.09373 | -75.96106 | 1513 ft | 145 kts | 163° |
| 2026-05-05 00:36 | 36.08440 | -75.95659 | 1531 ft | 145 kts | 169° |
| 2026-05-05 00:36 | 36.07474 | -75.95364 | 1515 ft | 140 kts | 175° |
| 2026-05-05 00:36 | 36.06529 | -75.95135 | 1525 ft | 138 kts | 176° |
| 2026-05-05 00:37 | 36.05585 | -75.94881 | 1515 ft | 143 kts | 166° |
| 2026-05-05 00:37 | 36.04870 | -75.93968 | 1511 ft | 165 kts | 119° |
| 2026-05-05 00:37 | 36.04804 | -75.92486 | 1515 ft | 184 kts | 86° |
| 2026-05-05 00:37 | 36.05466 | -75.91099 | 1502 ft | 196 kts | 41° |
| 2026-05-05 00:38 | 36.06706 | -75.90556 | 1500 ft | 187 kts | 353° |
| 2026-05-05 00:38 | 36.07938 | -75.90945 | 1506 ft | 182 kts | 330° |
| 2026-05-05 00:38 | 36.09053 | -75.91657 | 1517 ft | 179 kts | 318° |
| 2026-05-05 00:38 | 36.09874 | -75.92731 | 1514 ft | 166 kts | 285° |
| 2026-05-05 00:39 | 36.10077 | -75.94032 | 1500 ft | 150 kts | 257° |
| 2026-05-05 00:39 | 36.09921 | -75.95296 | 1490 ft | 149 kts | 250° |
| 2026-05-05 00:39 | 36.09689 | -75.96540 | 1489 ft | 148 kts | 249° |
| 2026-05-05 00:39 | 36.09404 | -75.97758 | 1501 ft | 144 kts | 237° |
| 2026-05-05 00:40 | 36.08713 | -75.98539 | 1493 ft | 134 kts | 199° |
| 2026-05-05 00:40 | 36.07779 | -75.98571 | 1509 ft | 138 kts | 179° |
| 2026-05-05 00:40 | 36.06827 | -75.98367 | 1501 ft | 139 kts | 175° |
| 2026-05-05 00:40 | 36.05877 | -75.98121 | 1497 ft | 140 kts | 173° |
| 2026-05-05 00:41 | 36.04931 | -75.97879 | 1496 ft | 142 kts | 173° |
| 2026-05-05 00:41 | 36.03968 | -75.97638 | 1489 ft | 139 kts | 173° |
| 2026-05-05 00:41 | 36.03026 | -75.97405 | 1503 ft | 139 kts | 174° |
| 2026-05-05 00:41 | 36.02155 | -75.96832 | 1496 ft | 155 kts | 139° |
| 2026-05-05 00:42 | 36.01828 | -75.95473 | 1513 ft | 177 kts | 100° |
| 2026-05-05 00:42 | 36.01953 | -75.93929 | 1512 ft | 182 kts | 88° |
| 2026-05-05 00:42 | 36.02227 | -75.92424 | 1504 ft | 178 kts | 84° |
| 2026-05-05 00:42 | 36.02530 | -75.90935 | 1517 ft | 179 kts | 84° |
| 2026-05-05 00:43 | 36.02741 | -75.89944 | 1511 ft | 183 kts | 79° |
| 2026-05-05 00:43 | 36.03443 | -75.88578 | 1498 ft | 196 kts | 41° |
| 2026-05-05 00:43 | 36.04695 | -75.88001 | 1498 ft | 191 kts | 359° |
| 2026-05-05 00:43 | 36.05990 | -75.88141 | 1500 ft | 185 kts | 343° |
| 2026-05-05 00:44 | 36.07638 | -75.88658 | 1510 ft | 186 kts | 338° |
| 2026-05-05 00:44 | 36.08488 | -75.88957 | 1517 ft | 189 kts | 337° |
| 2026-05-05 00:44 | 36.09758 | -75.89383 | 1505 ft | 188 kts | 338° |
| 2026-05-05 00:44 | 36.11026 | -75.89775 | 1499 ft | 187 kts | 338° |
| 2026-05-05 00:45 | 36.12166 | -75.90410 | 1495 ft | 172 kts | 311° |
| 2026-05-05 00:45 | 36.12776 | -75.91561 | 1505 ft | 154 kts | 274° |
| 2026-05-05 00:45 | 36.12783 | -75.92839 | 1506 ft | 147 kts | 254° |
| 2026-05-05 00:45 | 36.12594 | -75.94063 | 1490 ft | 144 kts | 249° |
| 2026-05-05 00:46 | 36.12297 | -75.95657 | 1497 ft | 143 kts | 248° |
| 2026-05-05 00:46 | 36.12149 | -75.96452 | 1492 ft | 144 kts | 248° |
| 2026-05-05 00:46 | 36.11928 | -75.97661 | 1491 ft | 145 kts | 248° |
| 2026-05-05 00:46 | 36.11710 | -75.98887 | 1494 ft | 147 kts | 250° |
| 2026-05-05 00:47 | 36.11494 | -76.00129 | 1478 ft | 148 kts | 251° |
| 2026-05-05 00:47 | 36.11232 | -76.01357 | 1487 ft | 145 kts | 238° |
| 2026-05-05 00:47 | 36.10534 | -76.02137 | 1496 ft | 136 kts | 197° |
| 2026-05-05 00:47 | 36.09593 | -76.02152 | 1506 ft | 137 kts | 179° |
| 2026-05-05 00:48 | 36.08641 | -76.01945 | 1503 ft | 140 kts | 175° |
| 2026-05-05 00:48 | 36.07693 | -76.01699 | 1494 ft | 139 kts | 174° |
| 2026-05-05 00:48 | 36.06737 | -76.01451 | 1498 ft | 140 kts | 173° |
| 2026-05-05 00:48 | 36.05771 | -76.01210 | 1488 ft | 142 kts | 174° |
| 2026-05-05 00:49 | 36.04832 | -76.00978 | 1497 ft | 138 kts | 174° |
| 2026-05-05 00:49 | 36.03883 | -76.00749 | 1499 ft | 139 kts | 175° |
| 2026-05-05 00:49 | 36.02928 | -76.00521 | 1499 ft | 140 kts | 175° |
| 2026-05-05 00:49 | 36.01971 | -76.00292 | 1516 ft | 140 kts | 176° |
| 2026-05-05 00:50 | 36.01023 | -76.00067 | 1497 ft | 137 kts | 175° |
| 2026-05-05 00:50 | 36.00092 | -75.99846 | 1504 ft | 136 kts | 174° |
| 2026-05-05 00:50 | 35.99226 | -75.99307 | 1497 ft | 152 kts | 141° |
| 2026-05-05 00:50 | 35.98899 | -75.97975 | 1509 ft | 175 kts | 101° |
| 2026-05-05 00:51 | 35.99020 | -75.96456 | 1517 ft | 179 kts | 89° |
| 2026-05-05 00:51 | 35.99291 | -75.94934 | 1506 ft | 183 kts | 85° |
| 2026-05-05 00:51 | 35.99593 | -75.93420 | 1527 ft | 185 kts | 84° |
| 2026-05-05 00:51 | 35.99896 | -75.91882 | 1512 ft | 184 kts | 84° |
| 2026-05-05 00:52 | 36.00184 | -75.90351 | 1523 ft | 181 kts | 85° |
| 2026-05-05 00:52 | 36.00453 | -75.88850 | 1511 ft | 178 kts | 85° |
| 2026-05-05 00:52 | 36.00708 | -75.87349 | 1523 ft | 179 kts | 86° |
| 2026-05-05 00:52 | 36.01046 | -75.85836 | 1508 ft | 190 kts | 70° |
| 2026-05-05 00:53 | 36.01984 | -75.84666 | 1505 ft | 197 kts | 22° |
| 2026-05-05 00:53 | 36.03295 | -75.84437 | 1508 ft | 187 kts | 351° |
| 2026-05-05 00:53 | 36.04563 | -75.84706 | 1507 ft | 184 kts | 340° |
| 2026-05-05 00:53 | 36.05805 | -75.85123 | 1521 ft | 187 kts | 337° |
| 2026-05-05 00:54 | 36.07069 | -75.85568 | 1514 ft | 189 kts | 337° |
| 2026-05-05 00:54 | 36.08334 | -75.85982 | 1508 ft | 188 kts | 338° |
| 2026-05-05 00:54 | 36.09597 | -75.86360 | 1505 ft | 185 kts | 340° |
| 2026-05-05 00:54 | 36.10841 | -75.86704 | 1512 ft | 183 kts | 341° |
| 2026-05-05 00:55 | 36.12095 | -75.87035 | 1511 ft | 185 kts | 341° |
| 2026-05-05 00:55 | 36.13368 | -75.87359 | 1512 ft | 187 kts | 342° |
| 2026-05-05 00:55 | 36.14619 | -75.87766 | 1495 ft | 182 kts | 327° |
| 2026-05-05 00:55 | 36.15523 | -75.88715 | 1509 ft | 163 kts | 288° |
| 2026-05-05 00:56 | 36.15745 | -75.89968 | 1515 ft | 147 kts | 258° |
| 2026-05-05 00:56 | 36.15613 | -75.91208 | 1510 ft | 144 kts | 250° |
| 2026-05-05 00:56 | 36.15407 | -75.92415 | 1512 ft | 143 kts | 249° |
| 2026-05-05 00:56 | 36.15188 | -75.93624 | 1511 ft | 144 kts | 249° |
| 2026-05-05 00:57 | 36.14972 | -75.94831 | 1491 ft | 144 kts | 250° |
| 2026-05-05 00:57 | 36.14761 | -75.96039 | 1492 ft | 144 kts | 250° |
| 2026-05-05 00:57 | 36.14551 | -75.97257 | 1486 ft | 144 kts | 251° |
| 2026-05-05 00:57 | 36.14346 | -75.98470 | 1485 ft | 143 kts | 250° |
| 2026-05-05 00:58 | 36.14145 | -75.99676 | 1489 ft | 143 kts | 249° |
| 2026-05-05 00:58 | 36.13946 | -76.00884 | 1488 ft | 143 kts | 249° |
| 2026-05-05 00:58 | 36.13746 | -76.02099 | 1488 ft | 144 kts | 249° |
| 2026-05-05 00:58 | 36.13548 | -76.03318 | 1491 ft | 146 kts | 250° |
| 2026-05-05 00:59 | 36.13344 | -76.04559 | 1474 ft | 147 kts | 249° |
| 2026-05-05 00:59 | 36.12869 | -76.05598 | 1477 ft | 139 kts | 216° |
| 2026-05-05 00:59 | 36.11955 | -76.05894 | 1501 ft | 140 kts | 183° |
| 2026-05-05 00:59 | 36.10997 | -76.05740 | 1502 ft | 138 kts | 176° |
| 2026-05-05 01:00 | 36.10049 | -76.05500 | 1497 ft | 140 kts | 175° |
| 2026-05-05 01:00 | 36.09100 | -76.05248 | 1495 ft | 139 kts | 174° |
| 2026-05-05 01:00 | 36.08150 | -76.04998 | 1497 ft | 141 kts | 173° |
| 2026-05-05 01:00 | 36.07185 | -76.04752 | 1497 ft | 143 kts | 174° |
| 2026-05-05 01:01 | 36.06224 | -76.04510 | 1491 ft | 139 kts | 174° |
| 2026-05-05 01:01 | 36.05280 | -76.04274 | 1506 ft | 139 kts | 175° |
| 2026-05-05 01:01 | 36.04328 | -76.04040 | 1505 ft | 140 kts | 176° |
| 2026-05-05 01:01 | 36.03368 | -76.03806 | 1514 ft | 140 kts | 175° |
| 2026-05-05 01:02 | 36.02411 | -76.03576 | 1511 ft | 139 kts | 175° |
| 2026-05-05 01:02 | 36.01473 | -76.03350 | 1508 ft | 136 kts | 175° |
| 2026-05-05 01:02 | 36.00539 | -76.03128 | 1514 ft | 137 kts | 175° |
| 2026-05-05 01:02 | 35.99604 | -76.02907 | 1501 ft | 135 kts | 176° |
| 2026-05-05 01:03 | 35.98673 | -76.02688 | 1515 ft | 139 kts | 176° |
| 2026-05-05 01:03 | 35.97726 | -76.02467 | 1519 ft | 140 kts | 175° |
| 2026-05-05 01:03 | 35.96775 | -76.02201 | 1512 ft | 143 kts | 166° |
| 2026-05-05 01:03 | 35.96049 | -76.01279 | 1513 ft | 168 kts | 119° |
| 2026-05-05 01:04 | 35.95954 | -75.99784 | 1519 ft | 181 kts | 93° |
| 2026-05-05 01:04 | 35.96459 | -75.96711 | 1512 ft | 184 kts | 84° |
| 2026-05-05 01:04 | 35.96772 | -75.95173 | 1508 ft | 185 kts | 85° |
| 2026-05-05 01:05 | 35.97072 | -75.93644 | 1536 ft | 181 kts | 86° |
| 2026-05-05 01:05 | 35.97355 | -75.92118 | 1529 ft | 183 kts | 86° |
| 2026-05-05 01:05 | 35.97622 | -75.90581 | 1531 ft | 185 kts | 86° |
| 2026-05-05 01:05 | 35.97878 | -75.89056 | 1557 ft | 182 kts | 87° |
| 2026-05-05 01:06 | 35.98115 | -75.87536 | 1874 ft | 178 kts | 89° |
| 2026-05-05 01:06 | 35.98301 | -75.86040 | 2675 ft | 169 kts | 91° |
| 2026-05-05 01:06 | 35.98414 | -75.84681 | 3823 ft | 153 kts | 91° |
| 2026-05-05 01:06 | 35.98454 | -75.83317 | 4642 ft | 168 kts | 92° |
| 2026-05-05 01:07 | 35.98437 | -75.81741 | 4830 ft | 208 kts | 91° |
| 2026-05-05 01:07 | 35.98679 | -75.80015 | 4182 ft | 203 kts | 59° |
| 2026-05-05 01:07 | 35.99710 | -75.78956 | 3509 ft | 191 kts | 11° |
| 2026-05-05 01:07 | 36.00945 | -75.79071 | 2873 ft | 175 kts | 328° |
| 2026-05-05 01:08 | 36.02003 | -75.79790 | 2246 ft | 174 kts | 319° |
| 2026-05-05 01:08 | 36.03062 | -75.80564 | 1663 ft | 178 kts | 321° |
| 2026-05-05 01:08 | 36.04171 | -75.81248 | 1515 ft | 180 kts | 327° |
| 2026-05-05 01:08 | 36.05345 | -75.81840 | 1508 ft | 184 kts | 331° |
| 2026-05-05 01:09 | 36.06552 | -75.82338 | 1508 ft | 185 kts | 335° |
| 2026-05-05 01:09 | 36.07779 | -75.82763 | 1509 ft | 182 kts | 338° |
| 2026-05-05 01:09 | 36.09044 | -75.83154 | 1523 ft | 198 kts | 340° |
| 2026-05-05 01:09 | 36.10432 | -75.83553 | 1511 ft | 209 kts | 341° |
| 2026-05-05 01:10 | 36.11860 | -75.83926 | 1493 ft | 209 kts | 342° |
| 2026-05-05 01:10 | 36.13280 | -75.84273 | 1491 ft | 208 kts | 342° |
| 2026-05-05 01:10 | 36.14702 | -75.84614 | 1513 ft | 209 kts | 343° |
| 2026-05-05 01:10 | 36.16140 | -75.84958 | 1518 ft | 211 kts | 343° |
| 2026-05-05 01:11 | 36.17488 | -75.85543 | 1499 ft | 199 kts | 319° |
| 2026-05-05 01:11 | 36.18333 | -75.86746 | 1497 ft | 177 kts | 282° |
| 2026-05-05 01:11 | 36.18474 | -75.88182 | 1511 ft | 165 kts | 257° |
| 2026-05-05 01:11 | 36.18299 | -75.89593 | 1505 ft | 168 kts | 251° |
| 2026-05-05 01:12 | 36.18071 | -75.91006 | 1502 ft | 167 kts | 251° |
| 2026-05-05 01:12 | 36.17839 | -75.92407 | 1494 ft | 166 kts | 251° |
| 2026-05-05 01:12 | 36.17613 | -75.93795 | 1488 ft | 163 kts | 251° |
| 2026-05-05 01:12 | 36.17390 | -75.95169 | 1496 ft | 163 kts | 251° |
| 2026-05-05 01:13 | 36.17167 | -75.96545 | 1497 ft | 164 kts | 251° |
| 2026-05-05 01:13 | 36.16944 | -75.97928 | 1505 ft | 164 kts | 251° |
| 2026-05-05 01:13 | 36.16722 | -75.99314 | 1498 ft | 164 kts | 251° |
| 2026-05-05 01:13 | 36.16500 | -76.00699 | 1480 ft | 164 kts | 252° |
| 2026-05-05 01:14 | 36.16277 | -76.02087 | 1492 ft | 165 kts | 252° |
| 2026-05-05 01:14 | 36.16054 | -76.03482 | 1489 ft | 165 kts | 252° |
| 2026-05-05 01:14 | 36.15834 | -76.04864 | 1496 ft | 164 kts | 251° |
| 2026-05-05 01:14 | 36.15617 | -76.06230 | 1494 ft | 164 kts | 251° |
| 2026-05-05 01:15 | 36.15467 | -76.07168 | 1493 ft | 165 kts | 251° |
| 2026-05-05 01:15 | 36.14972 | -76.08900 | 1485 ft | 160 kts | 226° |
| 2026-05-05 01:15 | 36.14006 | -76.09494 | 1490 ft | 161 kts | 187° |
| 2026-05-05 01:15 | 36.12877 | -76.09379 | 1506 ft | 165 kts | 172° |
| 2026-05-05 01:16 | 36.11928 | -76.08555 | 1503 ft | 179 kts | 135° |
| 2026-05-05 01:16 | 36.11401 | -76.07101 | 1514 ft | 190 kts | 117° |
| 2026-05-05 01:16 | 36.11048 | -76.05510 | 1500 ft | 192 kts | 113° |
| 2026-05-05 01:16 | 36.10740 | -76.03898 | 1512 ft | 193 kts | 111° |
| 2026-05-05 01:17 | 36.10441 | -76.02279 | 1516 ft | 192 kts | 110° |
| 2026-05-05 01:17 | 36.10146 | -76.00683 | 1500 ft | 188 kts | 110° |
| 2026-05-05 01:17 | 36.09848 | -75.99102 | 1508 ft | 189 kts | 111° |
| 2026-05-05 01:17 | 36.09543 | -75.97508 | 1518 ft | 190 kts | 111° |
| 2026-05-05 01:18 | 36.09236 | -75.95913 | 1519 ft | 191 kts | 112° |
| 2026-05-05 01:18 | 36.08929 | -75.94321 | 1514 ft | 190 kts | 113° |
| 2026-05-05 01:18 | 36.08622 | -75.92733 | 1517 ft | 190 kts | 113° |
| 2026-05-05 01:18 | 36.08313 | -75.91145 | 1516 ft | 190 kts | 113° |
| 2026-05-05 01:19 | 36.08005 | -75.89571 | 1520 ft | 191 kts | 113° |
| 2026-05-05 01:19 | 36.07692 | -75.87968 | 1516 ft | 191 kts | 113° |
| 2026-05-05 01:19 | 36.07380 | -75.86369 | 1515 ft | 191 kts | 112° |
| 2026-05-05 01:19 | 36.07068 | -75.84770 | 1511 ft | 191 kts | 112° |
| 2026-05-05 01:20 | 36.06753 | -75.83166 | 1515 ft | 193 kts | 112° |
| 2026-05-05 01:20 | 36.06436 | -75.81551 | 1516 ft | 194 kts | 111° |
| 2026-05-05 01:20 | 36.06119 | -75.79933 | 1519 ft | 193 kts | 111° |
| 2026-05-05 01:20 | 36.05804 | -75.78321 | 1511 ft | 193 kts | 112° |
| 2026-05-05 01:21 | 36.05490 | -75.76713 | 1504 ft | 192 kts | 112° |
| 2026-05-05 01:21 | 36.05176 | -75.75109 | 1512 ft | 192 kts | 112° |
| 2026-05-05 01:21 | 36.04862 | -75.73507 | 1508 ft | 192 kts | 112° |
| 2026-05-05 01:21 | 36.04548 | -75.71906 | 1515 ft | 192 kts | 112° |
| 2026-05-05 01:22 | 36.04236 | -75.70310 | 1500 ft | 190 kts | 112° |
| 2026-05-05 01:22 | 36.03923 | -75.68720 | 1503 ft | 190 kts | 113° |
| 2026-05-05 01:22 | 36.03451 | -75.67240 | 1527 ft | 180 kts | 133° |
| 2026-05-05 01:22 | 36.02585 | -75.66211 | 1533 ft | 168 kts | 156° |
| 2026-05-05 01:23 | 36.01548 | -75.65575 | 1541 ft | 165 kts | 164° |
| 2026-05-05 01:23 | 36.00479 | -75.65033 | 1530 ft | 167 kts | 165° |
| 2026-05-05 01:23 | 35.99407 | -75.64491 | 1526 ft | 167 kts | 165° |
| 2026-05-05 01:23 | 35.98332 | -75.63929 | 1534 ft | 169 kts | 164° |
| 2026-05-05 01:24 | 35.97257 | -75.63342 | 1528 ft | 169 kts | 163° |
| 2026-05-05 01:24 | 35.96207 | -75.62752 | 1528 ft | 166 kts | 163° |
| 2026-05-05 01:24 | 35.95163 | -75.62161 | 1553 ft | 164 kts | 163° |
| 2026-05-05 01:24 | 35.94123 | -75.61576 | 1548 ft | 164 kts | 163° |
| 2026-05-05 01:25 | 35.93084 | -75.60997 | 1551 ft | 164 kts | 163° |
| 2026-05-05 01:25 | 35.92044 | -75.60420 | 1547 ft | 165 kts | 163° |
| 2026-05-05 01:25 | 35.90981 | -75.59836 | 1539 ft | 168 kts | 162° |
| 2026-05-05 01:25 | 35.89913 | -75.59247 | 1550 ft | 168 kts | 162° |
| 2026-05-05 01:26 | 35.88844 | -75.58660 | 1552 ft | 169 kts | 163° |
| 2026-05-05 01:26 | 35.87775 | -75.58071 | 1545 ft | 166 kts | 163° |
| 2026-05-05 01:26 | 35.86723 | -75.57494 | 1533 ft | 167 kts | 163° |
| 2026-05-05 01:26 | 35.85650 | -75.56909 | 1537 ft | 169 kts | 162° |
| 2026-05-05 01:27 | 35.84570 | -75.56320 | 1538 ft | 169 kts | 162° |
| 2026-05-05 01:27 | 35.83497 | -75.55731 | 1542 ft | 168 kts | 162° |
| 2026-05-05 01:27 | 35.82433 | -75.55151 | 1538 ft | 166 kts | 162° |
| 2026-05-05 01:27 | 35.81377 | -75.54576 | 1520 ft | 166 kts | 163° |
| 2026-05-05 01:28 | 35.80346 | -75.53910 | 1535 ft | 173 kts | 148° |
| 2026-05-05 01:28 | 35.79756 | -75.52589 | 1539 ft | 193 kts | 104° |
| 2026-05-05 01:28 | 35.79974 | -75.50904 | 1543 ft | 206 kts | 77° |
| 2026-05-05 01:28 | 35.80537 | -75.49278 | 1549 ft | 207 kts | 69° |
| 2026-05-05 01:29 | 35.81178 | -75.47694 | 1532 ft | 205 kts | 67° |
| 2026-05-05 01:29 | 35.81820 | -75.46121 | 1535 ft | 206 kts | 68° |
| 2026-05-05 01:29 | 35.82451 | -75.44528 | 1557 ft | 208 kts | 69° |
| 2026-05-05 01:29 | 35.83070 | -75.42919 | 1542 ft | 207 kts | 70° |
| 2026-05-05 01:30 | 35.83470 | -75.41859 | 1534 ft | 204 kts | 69° |
| 2026-05-05 01:30 | 35.84060 | -75.40276 | 1550 ft | 203 kts | 70° |
| 2026-05-05 01:30 | 35.84828 | -75.38179 | 1542 ft | 200 kts | 71° |
| 2026-05-05 01:30 | 35.85407 | -75.36578 | 1545 ft | 207 kts | 71° |
| 2026-05-05 01:31 | 35.85801 | -75.35486 | 1545 ft | 205 kts | 71° |
| 2026-05-05 01:31 | 35.86371 | -75.33907 | 1543 ft | 204 kts | 71° |
| 2026-05-05 01:31 | 35.86952 | -75.32288 | 1546 ft | 208 kts | 71° |
| 2026-05-05 01:31 | 35.87537 | -75.30660 | 1548 ft | 207 kts | 71° |
| 2026-05-05 01:32 | 35.88114 | -75.29059 | 1543 ft | 204 kts | 71° |
| 2026-05-05 01:32 | 35.88693 | -75.27446 | 1549 ft | 206 kts | 71° |
| 2026-05-05 01:32 | 35.89273 | -75.25825 | 1531 ft | 207 kts | 71° |
| 2026-05-05 01:32 | 35.89854 | -75.24203 | 1545 ft | 207 kts | 71° |
| 2026-05-05 01:33 | 35.90436 | -75.22575 | 1556 ft | 208 kts | 71° |
| 2026-05-05 01:33 | 35.91020 | -75.20942 | 1552 ft | 206 kts | 71° |
| 2026-05-05 01:33 | 35.91603 | -75.19316 | 1527 ft | 216 kts | 71° |
| 2026-05-05 01:33 | 35.92476 | -75.17620 | 1559 ft | 253 kts | 44° |
| 2026-05-05 01:34 | 35.94061 | -75.16659 | 1554 ft | 255 kts | 5° |
| 2026-05-05 01:34 | 35.95751 | -75.16931 | 1550 ft | 242 kts | 332° |
| 2026-05-05 01:34 | 35.97246 | -75.17869 | 1556 ft | 243 kts | 324° |
| 2026-05-05 01:34 | 35.98723 | -75.18876 | 1540 ft | 242 kts | 324° |
| 2026-05-05 01:35 | 36.00217 | -75.19832 | 1553 ft | 243 kts | 327° |
| 2026-05-05 01:35 | 36.01740 | -75.20752 | 1542 ft | 242 kts | 329° |
| 2026-05-05 01:35 | 36.03264 | -75.21636 | 1542 ft | 242 kts | 329° |
| 2026-05-05 01:35 | 36.04772 | -75.22493 | 1552 ft | 242 kts | 328° |
| 2026-05-05 01:36 | 36.06321 | -75.23363 | 1547 ft | 244 kts | 329° |
| 2026-05-05 01:36 | 36.07862 | -75.24219 | 1534 ft | 243 kts | 329° |
| 2026-05-05 01:36 | 36.09416 | -75.25081 | 1539 ft | 245 kts | 328° |
| 2026-05-05 01:36 | 36.10971 | -75.25940 | 1542 ft | 244 kts | 329° |
| 2026-05-05 01:37 | 36.12517 | -75.26790 | 1535 ft | 244 kts | 329° |
| 2026-05-05 01:37 | 36.14065 | -75.27642 | 1528 ft | 243 kts | 330° |
| 2026-05-05 01:37 | 36.15621 | -75.28498 | 1541 ft | 246 kts | 329° |
| 2026-05-05 01:37 | 36.17186 | -75.29359 | 1531 ft | 245 kts | 329° |
| 2026-05-05 01:38 | 36.18742 | -75.30211 | 1543 ft | 244 kts | 329° |
| 2026-05-05 01:38 | 36.20294 | -75.31063 | 1548 ft | 244 kts | 330° |
| 2026-05-05 01:38 | 36.21858 | -75.31921 | 1544 ft | 246 kts | 330° |
| 2026-05-05 01:38 | 36.23402 | -75.32767 | 1530 ft | 245 kts | 329° |
| 2026-05-05 01:39 | 36.24972 | -75.33627 | 1523 ft | 241 kts | 329° |
| 2026-05-05 01:39 | 36.26483 | -75.34455 | 1528 ft | 240 kts | 329° |
| 2026-05-05 01:39 | 36.27950 | -75.35263 | 1539 ft | 243 kts | 330° |
| 2026-05-05 01:39 | 36.29237 | -75.35972 | 1533 ft | 246 kts | 329° |
| 2026-05-05 01:40 | 36.30679 | -75.36766 | 1515 ft | 248 kts | 330° |
| 2026-05-05 01:40 | 36.32250 | -75.37629 | 1519 ft | 246 kts | 329° |
| 2026-05-05 01:40 | 36.33807 | -75.38483 | 1528 ft | 244 kts | 330° |
| 2026-05-05 01:40 | 36.35365 | -75.39342 | 1517 ft | 245 kts | 329° |
| 2026-05-05 01:41 | 36.36733 | -75.40503 | 1534 ft | 231 kts | 304° |
| 2026-05-05 01:41 | 36.37433 | -75.42181 | 1524 ft | 214 kts | 274° |
| 2026-05-05 01:41 | 36.37343 | -75.43946 | 1530 ft | 200 kts | 248° |
| 2026-05-05 01:41 | 36.36863 | -75.45565 | 1512 ft | 202 kts | 243° |
| 2026-05-05 01:42 | 36.36426 | -75.47230 | 1523 ft | 203 kts | 250° |
| 2026-05-05 01:42 | 36.36132 | -75.48946 | 1524 ft | 205 kts | 253° |
| 2026-05-05 01:42 | 36.35866 | -75.50680 | 1521 ft | 203 kts | 253° |
| 2026-05-05 01:42 | 36.35609 | -75.52384 | 1503 ft | 204 kts | 253° |
| 2026-05-05 01:43 | 36.35348 | -75.54138 | 1512 ft | 203 kts | 253° |
| 2026-05-05 01:43 | 36.35099 | -75.55829 | 1510 ft | 202 kts | 253° |
| 2026-05-05 01:43 | 36.34841 | -75.57564 | 1528 ft | 207 kts | 254° |
| 2026-05-05 01:43 | 36.34585 | -75.59322 | 1529 ft | 207 kts | 255° |
| 2026-05-05 01:44 | 36.34330 | -75.61081 | 1516 ft | 207 kts | 255° |
| 2026-05-05 01:44 | 36.34081 | -75.62815 | 1512 ft | 202 kts | 253° |
| 2026-05-05 01:44 | 36.33828 | -75.64546 | 1510 ft | 205 kts | 253° |
| 2026-05-05 01:44 | 36.33574 | -75.66293 | 1520 ft | 207 kts | 253° |
| 2026-05-05 01:45 | 36.33320 | -75.68057 | 1521 ft | 205 kts | 254° |
| 2026-05-05 01:45 | 36.33091 | -75.69785 | 1528 ft | 203 kts | 254° |
| 2026-05-05 01:45 | 36.32836 | -75.71515 | 1517 ft | 204 kts | 253° |
| 2026-05-05 01:45 | 36.32580 | -75.73233 | 1519 ft | 201 kts | 253° |
| 2026-05-05 01:46 | 36.32324 | -75.74936 | 1521 ft | 201 kts | 252° |
| 2026-05-05 01:46 | 36.32081 | -75.76602 | 1513 ft | 198 kts | 253° |
| 2026-05-05 01:46 | 36.31843 | -75.78312 | 1517 ft | 204 kts | 253° |
| 2026-05-05 01:46 | 36.31587 | -75.80041 | 1518 ft | 202 kts | 252° |
| 2026-05-05 01:47 | 36.31323 | -75.81757 | 1514 ft | 203 kts | 253° |
| 2026-05-05 01:47 | 36.31064 | -75.83459 | 1510 ft | 199 kts | 253° |
| 2026-05-05 01:47 | 36.30807 | -75.85150 | 1515 ft | 200 kts | 253° |
| 2026-05-05 01:47 | 36.30569 | -75.86836 | 1516 ft | 198 kts | 253° |
| 2026-05-05 01:48 | 36.30321 | -75.88539 | 1516 ft | 204 kts | 253° |
| 2026-05-05 01:48 | 36.30071 | -75.90251 | 1512 ft | 202 kts | 253° |
| 2026-05-05 01:48 | 36.29813 | -75.91972 | 1511 ft | 205 kts | 253° |
| 2026-05-05 01:48 | 36.29549 | -75.93708 | 1510 ft | 203 kts | 254° |
| 2026-05-05 01:49 | 36.29309 | -75.95405 | 1505 ft | 200 kts | 254° |
| 2026-05-05 01:49 | 36.29068 | -75.97118 | 1516 ft | 201 kts | 254° |
| 2026-05-05 01:49 | 36.28825 | -75.98829 | 1513 ft | 202 kts | 253° |
| 2026-05-05 01:49 | 36.28566 | -76.00557 | 1510 ft | 204 kts | 253° |
| 2026-05-05 01:50 | 36.28306 | -76.02276 | 1507 ft | 202 kts | 253° |
| 2026-05-05 01:50 | 36.28041 | -76.03987 | 1503 ft | 203 kts | 253° |
| 2026-05-05 01:50 | 36.27775 | -76.05714 | 1496 ft | 204 kts | 255° |
| 2026-05-05 01:50 | 36.27525 | -76.07446 | 1500 ft | 204 kts | 254° |
| 2026-05-05 01:51 | 36.27274 | -76.09171 | 1504 ft | 203 kts | 254° |
| 2026-05-05 01:51 | 36.27022 | -76.10814 | 1620 ft | 176 kts | 251° |
| 2026-05-05 01:51 | 36.26775 | -76.12110 | 1603 ft | 133 kts | 249° |
| 2026-05-05 01:51 | 36.26581 | -76.13149 | 1205 ft | 121 kts | 248° |
| 2026-05-05 01:52 | 36.26363 | -76.14243 | 851 ft | 135 kts | 249° |
| 2026-05-05 01:52 | 36.26104 | -76.15362 | 268 ft | 135 kts | 258° |
| 2026-05-05 01:52 | 36.26070 | -76.16463 | 34 ft | 118 kts | 264° |
| 2026-05-05 01:52 | 36.26077 | -76.17027 | 20 ft | 1 kts | 281° |